Time;durP1;ratioP1;P1;durP2;ratioP2;P2;SDS_P1;SDS_P2;PMS_P1;PMS_P2;Temp;Humidity;BMP_temperature;BMP_pressure;BME280_temperature;BME280_humidity;BME280_pressure;Samples;Min_cycle;Max_cycle;Signal;HPM_P1;HPM_P2
2023/07/07 00:02:10;;;;;;;8.32;4.35;;;;;;;;;;5046927;28;20044;-79
2023/07/07 00:04:35;;;;;;;7.70;4.55;;;;;;;;;;5048206;28;20033;-79
2023/07/07 00:07:01;;;;;;;7.97;4.82;;;;;;;;;;5056923;28;20115;-79
2023/07/07 00:09:26;;;;;;;7.60;4.53;;;;;;;;;;5048570;28;20049;-80
2023/07/07 00:11:52;;;;;;;6.25;4.57;;;;;;;;;;5046501;28;20341;-79
2023/07/07 00:14:17;;;;;;;9.45;4.90;;;;;;;;;;5040142;28;20128;-80
2023/07/07 00:16:43;;;;;;;7.38;4.30;;;;;;;;;;5053487;28;20038;-79
2023/07/07 00:19:09;;;;;;;8.63;5.15;;;;;;;;;;5054343;28;20033;-79
2023/07/07 00:21:36;;;;;;;7.35;5.22;;;;;;;;;;5046295;28;20033;-78
2023/07/07 00:24:01;;;;;;;8.43;4.82;;;;;;;;;;5049825;28;20048;-79
2023/07/07 00:26:26;;;;;;;6.90;4.65;;;;;;;;;;5044938;28;20029;-79
2023/07/07 00:28:52;;;;;;;8.10;5.20;;;;;;;;;;5047775;28;20032;-79
2023/07/07 00:31:20;;;;;;;8.63;5.10;;;;;;;;;;5046168;28;20045;-79
2023/07/07 00:33:46;;;;;;;6.28;4.63;;;;;;;;;;5053443;28;20040;-78
2023/07/07 00:36:12;;;;;;;9.90;5.38;;;;;;;;;;5047055;28;20021;-79
2023/07/07 00:38:38;;;;;;;8.05;5.40;;;;;;;;;;5045388;28;20128;-79
2023/07/07 00:41:05;;;;;;;7.38;5.47;;;;;;;;;;5050454;28;20053;-78
2023/07/07 00:43:30;;;;;;;9.80;5.15;;;;;;;;;;5052771;28;20040;-79
2023/07/07 00:45:57;;;;;;;9.32;4.93;;;;;;;;;;5049506;28;20033;-79
2023/07/07 00:48:26;;;;;;;8.40;4.90;;;;;;;;;;5050830;28;20080;-79
2023/07/07 00:51:02;;;;;;;7.78;5.13;;;;;;;;;;5044043;28;20487;-78
2023/07/07 00:53:29;;;;;;;6.90;4.50;;;;;;;;;;5051568;28;20124;-78
2023/07/07 00:56:05;;;;;;;8.57;5.70;;;;;;;;;;5053244;28;20041;-79
2023/07/07 00:58:32;;;;;;;10.18;4.90;;;;;;;;;;5052270;28;20041;-79
2023/07/07 01:01:02;;;;;;;14.52;5.90;;;;;;;;;;5038373;28;20136;-79
2023/07/07 01:03:37;;;;;;;15.43;5.60;;;;;;;;;;5055287;28;20037;-79
2023/07/07 01:06:06;;;;;;;8.00;5.70;;;;;;;;;;5045097;28;20092;-79
2023/07/07 01:08:32;;;;;;;6.93;5.40;;;;;;;;;;5054309;28;20569;-79
2023/07/07 01:10:57;;;;;;;10.18;5.82;;;;;;;;;;5040159;28;20022;-79
2023/07/07 01:13:23;;;;;;;9.02;5.63;;;;;;;;;;5054317;28;20106;-79
2023/07/07 01:15:55;;;;;;;10.82;5.78;;;;;;;;;;5039148;28;20550;-79
2023/07/07 01:18:49;;;;;;;11.48;5.57;;;;;;;;;;5055321;28;20024;-80
2023/07/07 01:21:29;;;;;;;10.40;5.97;;;;;;;;;;5045970;28;20041;-79
2023/07/07 01:24:28;;;;;;;7.78;5.22;;;;;;;;;;5043557;28;20021;-79
2023/07/07 01:27:21;;;;;;;10.10;6.18;;;;;;;;;;5049728;28;20699;-79
2023/07/07 01:30:14;;;;;;;10.27;5.65;;;;;;;;;;5047676;28;20131;-78
2023/07/07 01:32:40;;;;;;;7.20;5.03;;;;;;;;;;5048107;28;20440;-79
2023/07/07 01:35:12;;;;;;;10.75;5.78;;;;;;;;;;5051376;28;20067;-79
2023/07/07 01:37:37;;;;;;;11.48;5.60;;;;;;;;;;5045263;28;20064;-79
2023/07/07 01:40:03;;;;;;;7.97;4.65;;;;;;;;;;5047996;28;20033;-79
2023/07/07 01:42:45;;;;;;;7.22;4.90;;;;;;;;;;5054544;28;20029;-79
2023/07/07 01:45:25;;;;;;;6.88;4.95;;;;;;;;;;5046329;28;20029;-80
2023/07/07 01:48:07;;;;;;;9.23;5.03;;;;;;;;;;5064060;28;20032;-80
2023/07/07 01:50:34;;;;;;;8.32;4.65;;;;;;;;;;5054232;28;20041;-80
2023/07/07 01:53:15;;;;;;;12.10;5.50;;;;;;;;;;5044988;28;20029;-78
2023/07/07 01:55:47;;;;;;;8.27;4.97;;;;;;;;;;5047353;28;20523;-80
2023/07/07 01:58:15;;;;;;;7.57;5.47;;;;;;;;;;5047929;28;20091;-81
2023/07/07 02:00:42;;;;;;;8.00;5.60;;;;;;;;;;5038509;28;20096;-80
2023/07/07 02:03:10;;;;;;;9.13;5.10;;;;;;;;;;5049603;28;20029;-80
2023/07/07 02:05:39;;;;;;;8.07;5.22;;;;;;;;;;5047108;28;20017;-80
2023/07/07 02:08:04;;;;;;;7.93;5.68;;;;;;;;;;5050885;28;20120;-81
2023/07/07 02:10:29;;;;;;;9.52;5.22;;;;;;;;;;5049268;28;20037;-79
2023/07/07 02:12:55;;;;;;;12.93;5.70;;;;;;;;;;5042431;28;20037;-81
2023/07/07 02:15:20;;;;;;;9.75;6.20;;;;;;;;;;5042610;28;20074;-78
2023/07/07 02:17:45;;;;;;;10.55;5.93;;;;;;;;;;5036975;28;20442;-79
2023/07/07 02:20:11;;;;;;;12.00;5.97;;;;;;;;;;5054343;28;20055;-78
2023/07/07 02:22:37;;;;;;;7.97;5.10;;;;;;;;;;5047032;28;20044;-79
2023/07/07 02:25:03;;;;;;;8.93;5.35;;;;;;;;;;5050169;28;20041;-79
2023/07/07 02:27:28;;;;;;;9.48;5.13;;;;;;;;;;5047425;28;20116;-78
2023/07/07 02:29:53;;;;;;;11.38;5.38;;;;;;;;;;5037061;28;20085;-78
2023/07/07 02:32:18;;;;;;;9.63;5.45;;;;;;;;;;5037568;28;20056;-79
2023/07/07 02:34:47;;;;;;;8.45;5.65;;;;;;;;;;5039754;28;20041;-78
2023/07/07 02:37:18;;;;;;;6.88;4.80;;;;;;;;;;5054877;28;20029;-81
2023/07/07 02:39:45;;;;;;;9.02;5.00;;;;;;;;;;5045963;28;20025;-78
2023/07/07 02:42:11;;;;;;;9.80;4.95;;;;;;;;;;5046334;28;20021;-79
2023/07/07 02:44:36;;;;;;;8.88;5.65;;;;;;;;;;5046382;28;20018;-79
2023/07/07 02:47:02;;;;;;;9.82;6.15;;;;;;;;;;5051266;28;20079;-80
2023/07/07 02:49:27;;;;;;;7.13;4.95;;;;;;;;;;5042586;28;20038;-79
2023/07/07 02:51:52;;;;;;;8.65;5.30;;;;;;;;;;5040046;28;20034;-80
2023/07/07 02:54:18;;;;;;;9.85;5.60;;;;;;;;;;5039632;28;20025;-79
2023/07/07 02:56:43;;;;;;;7.68;4.72;;;;;;;;;;5047883;28;20127;-80
2023/07/07 02:59:09;;;;;;;9.90;5.85;;;;;;;;;;5043961;28;20043;-79
2023/07/07 03:01:34;;;;;;;8.23;5.28;;;;;;;;;;5039320;28;20032;-79
2023/07/07 03:03:59;;;;;;;6.88;5.10;;;;;;;;;;5038716;28;20037;-79
2023/07/07 03:06:25;;;;;;;8.80;5.40;;;;;;;;;;5048456;28;20033;-80
2023/07/07 03:08:51;;;;;;;8.65;5.55;;;;;;;;;;5039934;28;20025;-80
2023/07/07 03:11:20;;;;;;;7.50;4.70;;;;;;;;;;5039261;28;20037;-80
2023/07/07 03:13:47;;;;;;;11.13;5.60;;;;;;;;;;5047088;28;20040;-80
2023/07/07 03:16:20;;;;;;;8.55;4.95;;;;;;;;;;5042041;28;20030;-79
2023/07/07 03:18:47;;;;;;;12.90;5.70;;;;;;;;;;5048248;28;20403;-79
2023/07/07 03:21:12;;;;;;;7.07;4.95;;;;;;;;;;5043745;28;20063;-79
2023/07/07 03:23:39;;;;;;;9.35;5.47;;;;;;;;;;5038702;28;20021;-79
2023/07/07 03:26:16;;;;;;;9.63;5.00;;;;;;;;;;5037688;28;20025;-79
2023/07/07 03:28:42;;;;;;;9.05;5.40;;;;;;;;;;5042542;28;20030;-79
2023/07/07 03:31:09;;;;;;;8.98;4.95;;;;;;;;;;5039027;28;20397;-80
2023/07/07 03:33:35;;;;;;;9.07;4.90;;;;;;;;;;5037512;28;20033;-79
2023/07/07 03:36:00;;;;;;;7.63;4.75;;;;;;;;;;5037505;28;20067;-79
2023/07/07 03:38:26;;;;;;;10.50;5.90;;;;;;;;;;5045377;28;20064;-80
2023/07/07 03:40:51;;;;;;;8.88;5.55;;;;;;;;;;5046187;28;20112;-80
2023/07/07 03:43:18;;;;;;;7.45;5.10;;;;;;;;;;5044350;28;20037;-80
2023/07/07 03:45:44;;;;;;;7.50;5.28;;;;;;;;;;5036392;28;20029;-80
2023/07/07 03:48:09;;;;;;;12.27;5.03;;;;;;;;;;5045451;28;20071;-79
2023/07/07 03:50:35;;;;;;;15.27;5.05;;;;;;;;;;5050701;28;20035;-79
2023/07/07 03:53:00;;;;;;;8.20;5.43;;;;;;;;;;5038132;28;20033;-80
2023/07/07 03:55:25;;;;;;;10.68;5.75;;;;;;;;;;5037592;28;20025;-80
2023/07/07 03:57:50;;;;;;;8.35;5.90;;;;;;;;;;5042746;28;20045;-80
2023/07/07 04:00:16;;;;;;;10.90;5.97;;;;;;;;;;5037571;28;20022;-80
2023/07/07 04:02:43;;;;;;;9.30;5.65;;;;;;;;;;5038683;28;20080;-80
2023/07/07 04:05:08;;;;;;;12.38;5.72;;;;;;;;;;5038361;28;20079;-80
2023/07/07 04:07:33;;;;;;;8.52;5.38;;;;;;;;;;5038571;28;20030;-80
2023/07/07 04:09:59;;;;;;;6.47;4.90;;;;;;;;;;5039538;28;20056;-80
2023/07/07 04:12:24;;;;;;;8.75;5.25;;;;;;;;;;5045624;28;20037;-80
2023/07/07 04:14:50;;;;;;;7.15;4.55;;;;;;;;;;5038437;28;20105;-80
2023/07/07 04:17:15;;;;;;;9.05;4.75;;;;;;;;;;5046344;28;20454;-80
2023/07/07 04:19:40;;;;;;;6.57;4.50;;;;;;;;;;5051790;28;20041;-80
2023/07/07 04:22:06;;;;;;;6.47;4.50;;;;;;;;;;5048740;28;20051;-80
2023/07/07 04:24:31;;;;;;;9.57;5.10;;;;;;;;;;5042393;28;20029;-80
2023/07/07 04:26:56;;;;;;;10.35;4.75;;;;;;;;;;5045994;28;20048;-80
2023/07/07 04:29:21;;;;;;;7.95;4.60;;;;;;;;;;5050446;28;20041;-80
2023/07/07 04:31:47;;;;;;;7.38;4.50;;;;;;;;;;5038896;28;20028;-80
2023/07/07 04:34:14;;;;;;;13.02;5.15;;;;;;;;;;5035834;28;20290;-79
2023/07/07 04:36:40;;;;;;;8.30;4.55;;;;;;;;;;5042660;28;20041;-80
2023/07/07 04:39:06;;;;;;;8.52;4.10;;;;;;;;;;5041847;28;20078;-80
2023/07/07 04:41:31;;;;;;;9.48;4.28;;;;;;;;;;5040411;28;20017;-80
2023/07/07 04:43:59;;;;;;;10.40;4.18;;;;;;;;;;5040666;28;20051;-80
2023/07/07 04:46:38;;;;;;;12.65;4.50;;;;;;;;;;5051003;28;20140;-80
2023/07/07 04:49:08;;;;;;;12.27;4.28;;;;;;;;;;5041521;28;20035;-80
2023/07/07 04:51:38;;;;;;;6.55;4.20;;;;;;;;;;5050525;28;20037;-80
2023/07/07 04:54:05;;;;;;;5.57;4.03;;;;;;;;;;5040298;28;20021;-80
2023/07/07 04:56:32;;;;;;;7.13;4.18;;;;;;;;;;5040795;28;20124;-80
2023/07/07 04:58:58;;;;;;;9.93;3.63;;;;;;;;;;5038864;28;20497;-80
2023/07/07 05:01:26;;;;;;;12.13;4.70;;;;;;;;;;5051391;28;20050;-80
2023/07/07 05:03:57;;;;;;;9.05;5.00;;;;;;;;;;5043571;28;20025;-81
2023/07/07 05:06:24;;;;;;;11.27;4.35;;;;;;;;;;5055472;28;20040;-80
2023/07/07 05:08:49;;;;;;;8.05;4.55;;;;;;;;;;5043175;28;20107;-80
2023/07/07 05:11:18;;;;;;;6.90;4.35;;;;;;;;;;5044752;28;20059;-78
2023/07/07 05:13:46;;;;;;;10.02;4.93;;;;;;;;;;5044171;28;20443;-79
2023/07/07 05:16:16;;;;;;;8.15;4.85;;;;;;;;;;5051680;28;20041;-78
2023/07/07 05:18:41;;;;;;;7.65;4.32;;;;;;;;;;5044856;28;20036;-79
2023/07/07 05:21:08;;;;;;;7.43;3.92;;;;;;;;;;5045202;28;20016;-79
2023/07/07 05:23:37;;;;;;;6.10;4.40;;;;;;;;;;5046601;28;20036;-79
2023/07/07 05:26:03;;;;;;;9.15;4.53;;;;;;;;;;5039798;28;20033;-78
2023/07/07 05:28:28;;;;;;;10.68;4.60;;;;;;;;;;5050642;28;20039;-78
2023/07/07 05:30:54;;;;;;;8.10;4.95;;;;;;;;;;5051156;28;20025;-79
2023/07/07 05:33:20;;;;;;;8.73;4.32;;;;;;;;;;5048332;28;20289;-79
2023/07/07 05:35:53;;;;;;;7.63;4.30;;;;;;;;;;5044142;28;20029;-79
2023/07/07 05:38:22;;;;;;;6.40;4.38;;;;;;;;;;5044766;28;20083;-78
2023/07/07 05:40:47;;;;;;;11.07;3.80;;;;;;;;;;5034104;28;20038;-78
2023/07/07 05:43:14;;;;;;;6.88;4.03;;;;;;;;;;5034301;28;20030;-78
2023/07/07 05:45:39;;;;;;;6.57;3.58;;;;;;;;;;5042322;28;20562;-79
2023/07/07 05:48:06;;;;;;;8.07;4.45;;;;;;;;;;5044527;28;20017;-78
2023/07/07 05:50:31;;;;;;;6.82;4.47;;;;;;;;;;5041635;28;20147;-78
2023/07/07 05:52:57;;;;;;;5.93;4.22;;;;;;;;;;5044284;28;20098;-79
2023/07/07 05:55:28;;;;;;;12.82;4.75;;;;;;;;;;5041781;28;20033;-79
2023/07/07 05:57:54;;;;;;;8.50;4.35;;;;;;;;;;5047989;28;20055;-78
2023/07/07 06:00:20;;;;;;;8.43;4.30;;;;;;;;;;5052056;28;20029;-78
2023/07/07 06:02:45;;;;;;;5.75;4.00;;;;;;;;;;5041665;28;20088;-79
2023/07/07 06:05:10;;;;;;;10.43;4.18;;;;;;;;;;5053929;28;20039;-79
2023/07/07 06:07:36;;;;;;;9.00;4.50;;;;;;;;;;5046786;28;20033;-80
2023/07/07 06:10:01;;;;;;;8.35;3.90;;;;;;;;;;5057914;28;20021;-78
2023/07/07 06:12:26;;;;;;;7.90;4.38;;;;;;;;;;5048434;28;20065;-80
2023/07/07 06:14:51;;;;;;;8.70;4.00;;;;;;;;;;5045600;28;20403;-81
2023/07/07 06:17:17;;;;;;;4.40;3.60;;;;;;;;;;5043702;28;20033;-79
2023/07/07 06:19:42;;;;;;;5.18;4.22;;;;;;;;;;5037360;28;20034;-79
2023/07/07 06:22:08;;;;;;;8.20;4.10;;;;;;;;;;5058673;28;20039;-79
2023/07/07 06:24:33;;;;;;;5.63;4.20;;;;;;;;;;5057136;28;20059;-79
2023/07/07 06:26:58;;;;;;;6.93;3.88;;;;;;;;;;5037801;28;20497;-79
2023/07/07 06:29:24;;;;;;;10.75;4.45;;;;;;;;;;5041470;28;20033;-79
2023/07/07 06:31:49;;;;;;;9.23;5.18;;;;;;;;;;5038011;28;20080;-79
2023/07/07 06:34:14;;;;;;;5.18;4.07;;;;;;;;;;5054964;28;20052;-79
2023/07/07 06:36:40;;;;;;;5.47;4.05;;;;;;;;;;5046727;28;20048;-80
2023/07/07 06:39:05;;;;;;;9.85;4.22;;;;;;;;;;5038369;28;20026;-79
2023/07/07 06:41:31;;;;;;;6.65;4.03;;;;;;;;;;5048851;28;20414;-79
2023/07/07 06:43:56;;;;;;;6.25;4.10;;;;;;;;;;5039437;28;20367;-79
2023/07/07 06:46:24;;;;;;;6.97;4.15;;;;;;;;;;5040200;28;20028;-79
2023/07/07 06:48:49;;;;;;;7.80;4.20;;;;;;;;;;5049190;28;20119;-79
2023/07/07 06:51:15;;;;;;;11.23;4.25;;;;;;;;;;5050382;28;20051;-78
2023/07/07 06:53:40;;;;;;;7.47;4.78;;;;;;;;;;5049098;28;20033;-79
2023/07/07 06:56:05;;;;;;;6.50;4.68;;;;;;;;;;5049267;28;20512;-79
2023/07/07 06:58:33;;;;;;;7.07;4.60;;;;;;;;;;5051153;28;20128;-79
2023/07/07 07:00:58;;;;;;;5.50;4.20;;;;;;;;;;5041888;28;20033;-79
2023/07/07 07:03:23;;;;;;;6.05;4.53;;;;;;;;;;5052647;28;20040;-79
2023/07/07 07:05:49;;;;;;;5.40;4.20;;;;;;;;;;5048650;28;20486;-79
2023/07/07 07:08:14;;;;;;;6.68;4.20;;;;;;;;;;5054100;28;20033;-78
2023/07/07 07:10:39;;;;;;;5.43;4.05;;;;;;;;;;5044940;28;20154;-78
2023/07/07 07:13:05;;;;;;;5.03;4.28;;;;;;;;;;5055966;28;20033;-78
2023/07/07 07:15:31;;;;;;;8.13;4.78;;;;;;;;;;5049709;28;20040;-80
2023/07/07 07:17:56;;;;;;;4.97;3.85;;;;;;;;;;5044796;28;20041;-80
2023/07/07 07:20:21;;;;;;;5.25;4.30;;;;;;;;;;5043933;28;20091;-79
2023/07/07 07:22:48;;;;;;;6.22;4.30;;;;;;;;;;5053083;28;20033;-80
2023/07/07 07:25:13;;;;;;;4.22;3.60;;;;;;;;;;5047296;28;20033;-80
2023/07/07 07:27:38;;;;;;;6.28;4.43;;;;;;;;;;5047682;28;20086;-79
2023/07/07 07:30:07;;;;;;;5.57;3.78;;;;;;;;;;5052003;28;20533;-79
2023/07/07 07:32:32;;;;;;;5.60;3.85;;;;;;;;;;5052270;28;20028;-79
2023/07/07 07:34:57;;;;;;;6.30;4.47;;;;;;;;;;5055264;28;20040;-79
2023/07/07 07:37:22;;;;;;;5.05;4.30;;;;;;;;;;5053283;28;20041;-82
2023/07/07 07:39:48;;;;;;;5.00;4.05;;;;;;;;;;5047932;28;20324;-79
2023/07/07 07:42:13;;;;;;;12.88;4.10;;;;;;;;;;5046918;28;20029;-79
2023/07/07 07:44:38;;;;;;;6.55;3.75;;;;;;;;;;5055062;28;20028;-79
2023/07/07 07:47:04;;;;;;;5.95;3.92;;;;;;;;;;5050656;28;20032;-80
2023/07/07 07:49:30;;;;;;;7.38;4.82;;;;;;;;;;5052225;28;20114;-79
2023/07/07 07:51:56;;;;;;;6.47;4.57;;;;;;;;;;5047935;28;20048;-79
2023/07/07 07:54:22;;;;;;;6.15;4.43;;;;;;;;;;5049115;28;20032;-79
2023/07/07 07:56:48;;;;;;;5.25;4.43;;;;;;;;;;5041977;28;20025;-79
2023/07/07 07:59:13;;;;;;;6.18;4.72;;;;;;;;;;5048741;28;20294;-80
2023/07/07 08:01:39;;;;;;;6.40;4.55;;;;;;;;;;5048141;28;20029;-79
2023/07/07 08:04:05;;;;;;;7.05;4.38;;;;;;;;;;5050935;28;20036;-80
2023/07/07 08:06:31;;;;;;;5.40;4.43;;;;;;;;;;5042207;28;20108;-79
2023/07/07 08:08:56;;;;;;;7.47;5.25;;;;;;;;;;5046675;28;20108;-80
2023/07/07 08:11:48;;;;;;;8.15;4.63;;;;;;;;;;5048997;28;20048;-79
2023/07/07 08:14:16;;;;;;;7.70;4.82;;;;;;;;;;5035989;28;20036;-79
2023/07/07 08:16:41;;;;;;;6.82;4.55;;;;;;;;;;5051670;28;20083;-79
2023/07/07 08:19:07;;;;;;;6.35;4.13;;;;;;;;;;5044328;28;20029;-79
2023/07/07 08:21:33;;;;;;;8.73;5.22;;;;;;;;;;5050889;28;20056;-79
2023/07/07 08:23:59;;;;;;;5.85;4.28;;;;;;;;;;5050376;28;20136;-79
2023/07/07 08:26:24;;;;;;;8.20;4.70;;;;;;;;;;5046139;28;20064;-79
2023/07/07 08:28:49;;;;;;;6.72;4.80;;;;;;;;;;5049770;28;20064;-79
2023/07/07 08:31:16;;;;;;;7.10;4.25;;;;;;;;;;5050471;28;20029;-79
2023/07/07 08:33:44;;;;;;;10.35;5.10;;;;;;;;;;5053029;28;20033;-80
2023/07/07 08:36:10;;;;;;;7.68;5.30;;;;;;;;;;5050973;28;20032;-80
2023/07/07 08:38:35;;;;;;;6.30;4.72;;;;;;;;;;5055654;28;20407;-79
2023/07/07 08:41:01;;;;;;;8.40;4.60;;;;;;;;;;5048718;28;20021;-79
2023/07/07 08:43:29;;;;;;;10.88;4.43;;;;;;;;;;5053834;28;20059;-78
2023/07/07 08:46:05;;;;;;;8.23;4.78;;;;;;;;;;5053316;28;20091;-79
2023/07/07 08:48:53;;;;;;;6.40;4.30;;;;;;;;;;5061476;28;20041;-79
2023/07/07 08:51:23;;;;;;;10.15;4.45;;;;;;;;;;5054767;28;20032;-79
2023/07/07 08:54:06;;;;;;;7.75;4.30;;;;;;;;;;5054104;28;20029;-78
2023/07/07 08:56:49;;;;;;;6.15;4.50;;;;;;;;;;5042724;28;20061;-79
2023/07/07 08:59:27;;;;;;;8.68;4.18;;;;;;;;;;5064908;28;20446;-79
2023/07/07 09:02:07;;;;;;;6.05;4.57;;;;;;;;;;5049990;28;20039;-79
2023/07/07 09:04:54;;;;;;;8.73;4.55;;;;;;;;;;5047766;28;20099;-79
2023/07/07 09:07:32;;;;;;;6.43;4.75;;;;;;;;;;5059581;28;20037;-79
2023/07/07 09:10:12;;;;;;;5.53;4.60;;;;;;;;;;5038882;28;20033;-79
2023/07/07 09:13:00;;;;;;;10.55;4.75;;;;;;;;;;5049896;28;20057;-80
2023/07/07 09:15:29;;;;;;;6.75;5.25;;;;;;;;;;5044679;28;20553;-79
2023/07/07 09:18:01;;;;;;;6.05;4.10;;;;;;;;;;5050676;28;20123;-79
2023/07/07 09:20:30;;;;;;;6.25;4.82;;;;;;;;;;5045697;28;20038;-80
2023/07/07 09:23:08;;;;;;;5.28;4.53;;;;;;;;;;5045955;28;20530;-80
2023/07/07 09:25:40;;;;;;;6.50;4.65;;;;;;;;;;5041678;28;20097;-80
2023/07/07 09:28:08;;;;;;;7.30;4.45;;;;;;;;;;5045172;28;20025;-79
2023/07/07 09:30:42;;;;;;;7.78;5.03;;;;;;;;;;5044337;28;20034;-80
2023/07/07 09:33:12;;;;;;;8.27;4.60;;;;;;;;;;5055297;28;20033;-79
2023/07/07 09:35:42;;;;;;;5.38;4.40;;;;;;;;;;5050680;28;20286;-80
2023/07/07 09:38:32;;;;;;;5.05;4.32;;;;;;;;;;5053948;28;20044;-80
2023/07/07 09:41:13;;;;;;;8.82;5.22;;;;;;;;;;5052509;28;20254;-80
2023/07/07 09:44:10;;;;;;;8.70;4.25;;;;;;;;;;5049142;28;20036;-80
2023/07/07 09:46:46;;;;;;;9.30;4.60;;;;;;;;;;5055303;28;20407;-80
2023/07/07 09:49:22;;;;;;;6.97;5.30;;;;;;;;;;5052776;28;20096;-80
2023/07/07 09:51:54;;;;;;;5.60;4.60;;;;;;;;;;5053193;28;20049;-80
2023/07/07 09:54:21;;;;;;;12.98;5.38;;;;;;;;;;5049806;28;20024;-79
2023/07/07 09:56:55;;;;;;;8.32;4.32;;;;;;;;;;5046495;28;20053;-79
2023/07/07 09:59:26;;;;;;;9.07;4.40;;;;;;;;;;5044162;28;20093;-80
2023/07/07 10:01:55;;;;;;;7.43;4.82;;;;;;;;;;5055857;28;20335;-80
2023/07/07 10:04:21;;;;;;;6.68;4.95;;;;;;;;;;5050363;28;20033;-79
2023/07/07 10:06:59;;;;;;;8.48;4.85;;;;;;;;;;5056887;28;20029;-80
2023/07/07 10:09:26;;;;;;;6.60;4.05;;;;;;;;;;5052243;28;20052;-80
2023/07/07 10:11:51;;;;;;;7.78;4.90;;;;;;;;;;5044242;28;20025;-80
2023/07/07 10:14:17;;;;;;;6.55;4.50;;;;;;;;;;5051916;28;20471;-80
2023/07/07 10:17:08;;;;;;;10.73;4.82;;;;;;;;;;5048348;28;20037;-80
2023/07/07 10:19:45;;;;;;;8.60;4.30;;;;;;;;;;5053160;28;20063;-80
2023/07/07 10:22:15;;;;;;;9.15;4.85;;;;;;;;;;5056930;28;20087;-79
2023/07/07 10:24:41;;;;;;;8.85;4.80;;;;;;;;;;5042572;28;20483;-80
2023/07/07 10:27:17;;;;;;;5.97;4.18;;;;;;;;;;5050617;28;20024;-80
2023/07/07 10:29:43;;;;;;;7.47;4.80;;;;;;;;;;5050733;28;20470;-80
2023/07/07 10:32:13;;;;;;;6.82;4.68;;;;;;;;;;5053319;28;20392;-80
2023/07/07 10:34:43;;;;;;;6.03;4.32;;;;;;;;;;5054085;28;20081;-80
2023/07/07 10:37:20;;;;;;;7.10;4.40;;;;;;;;;;5053010;28;20500;-80
2023/07/07 10:39:50;;;;;;;8.25;4.68;;;;;;;;;;5050054;28;20037;-80
2023/07/07 10:42:15;;;;;;;7.22;4.70;;;;;;;;;;5060776;28;20029;-80
2023/07/07 10:44:41;;;;;;;9.43;4.25;;;;;;;;;;5052571;28;20074;-80
2023/07/07 10:47:08;;;;;;;8.80;4.20;;;;;;;;;;5053517;28;20060;-80
2023/07/07 10:49:34;;;;;;;6.28;4.50;;;;;;;;;;5052428;28;20120;-80
2023/07/07 10:52:16;;;;;;;8.95;4.55;;;;;;;;;;5054247;28;20060;-81
2023/07/07 10:54:50;;;;;;;5.90;4.10;;;;;;;;;;5056100;28;20495;-80
2023/07/07 10:57:33;;;;;;;10.95;5.43;;;;;;;;;;5053665;28;20075;-80
2023/07/07 11:00:07;;;;;;;10.40;5.47;;;;;;;;;;5052651;28;20048;-80
2023/07/07 11:02:35;;;;;;;11.15;5.15;;;;;;;;;;5055806;28;20033;-80
2023/07/07 11:05:16;;;;;;;10.48;4.40;;;;;;;;;;5052677;28;20044;-80
2023/07/07 11:07:53;;;;;;;6.50;4.72;;;;;;;;;;5048977;28;20029;-80
2023/07/07 11:10:34;;;;;;;6.43;4.80;;;;;;;;;;5046568;28;20032;-80
2023/07/07 11:13:18;;;;;;;8.90;4.82;;;;;;;;;;5053430;28;20037;-80
2023/07/07 11:16:01;;;;;;;6.75;4.65;;;;;;;;;;5051492;28;20037;-80
2023/07/07 11:18:56;;;;;;;8.00;4.70;;;;;;;;;;5054474;28;20071;-80
2023/07/07 11:21:27;;;;;;;9.82;4.97;;;;;;;;;;5048094;28;20029;-80
2023/07/07 11:23:52;;;;;;;7.63;5.10;;;;;;;;;;5065686;28;20048;-80
2023/07/07 11:26:36;;;;;;;5.87;4.27;;;;;;;;;;5050251;28;20037;-80
2023/07/07 11:29:29;;;;;;;8.25;3.90;;;;;;;;;;5051457;28;20272;-80
2023/07/07 11:32:09;;;;;;;8.75;4.47;;;;;;;;;;5059938;28;20028;-80
2023/07/07 11:34:43;;;;;;;7.53;4.35;;;;;;;;;;5045079;28;20121;-80
2023/07/07 11:37:08;;;;;;;;;;;;;;;;;;5052978;28;20041;-80
2023/07/07 11:40:04;;;;;;;5.97;4.20;;;;;;;;;;5052794;28;19955;-80
2023/07/07 11:42:59;;;;;;;7.68;4.13;;;;;;;;;;5048010;28;20036;-80
2023/07/07 11:45:43;;;;;;;12.02;4.32;;;;;;;;;;5049972;28;20043;-80
2023/07/07 11:48:20;;;;;;;;;;;;;;;;;;5051051;28;20070;-80
2023/07/07 11:51:04;;;;;;;7.25;4.20;;;;;;;;;;5053513;28;19924;-81
2023/07/07 11:53:46;;;;;;;9.13;4.78;;;;;;;;;;5047334;28;20041;-80
2023/07/07 11:56:39;;;;;;;9.23;4.68;;;;;;;;;;5056428;28;20056;-80
2023/07/07 11:59:14;;;;;;;7.95;4.13;;;;;;;;;;5053503;28;20045;-80
2023/07/07 12:01:47;;;;;;;7.38;4.95;;;;;;;;;;5053712;28;20295;-80
2023/07/07 12:04:33;;;;;;;7.43;4.63;;;;;;;;;;5053827;28;20044;-80
2023/07/07 12:07:03;;;;;;;9.50;4.30;;;;;;;;;;5052948;28;20518;-80
2023/07/07 12:09:43;;;;;;;5.53;4.40;;;;;;;;;;5051596;28;20510;-81
2023/07/07 12:12:40;;;;;;;5.22;4.20;;;;;;;;;;5053868;28;20033;-80
2023/07/07 12:15:18;;;;;;;9.25;5.45;;;;;;;;;;5044319;28;20395;-80
2023/07/07 12:17:50;;;;;;;8.85;4.55;;;;;;;;;;5055116;28;20028;-80
2023/07/07 12:20:22;;;;;;;5.93;4.90;;;;;;;;;;5048891;28;20065;-81
2023/07/07 12:22:48;;;;;;;11.32;4.38;;;;;;;;;;5053606;28;20058;-80
2023/07/07 12:25:26;;;;;;;9.25;4.68;;;;;;;;;;5053684;28;20143;-80
2023/07/07 12:27:53;;;;;;;5.53;4.18;;;;;;;;;;5053578;28;20048;-81
2023/07/07 12:30:22;;;;;;;7.43;4.28;;;;;;;;;;5045755;28;20404;-81
2023/07/07 12:32:48;;;;;;;10.57;4.90;;;;;;;;;;5051839;28;20406;-78
2023/07/07 12:35:28;;;;;;;8.50;4.72;;;;;;;;;;5050209;28;20144;-80
2023/07/07 12:37:56;;;;;;;7.60;4.57;;;;;;;;;;5054805;28;20033;-80
2023/07/07 12:40:21;;;;;;;5.97;4.28;;;;;;;;;;5055534;28;20029;-80
2023/07/07 12:42:57;;;;;;;8.18;4.70;;;;;;;;;;5057288;28;20406;-80
2023/07/07 12:45:31;;;;;;;9.82;4.68;;;;;;;;;;5044281;28;20048;-80
2023/07/07 12:48:05;;;;;;;10.02;4.18;;;;;;;;;;5047251;28;20024;-81
2023/07/07 12:50:37;;;;;;;7.72;3.67;;;;;;;;;;5047627;28;20428;-80
2023/07/07 12:53:19;;;;;;;6.35;4.03;;;;;;;;;;5054386;28;20044;-80
2023/07/07 12:56:06;;;;;;;8.88;4.00;;;;;;;;;;5056360;28;20037;-80
2023/07/07 12:58:41;;;;;;;5.65;4.47;;;;;;;;;;5054602;28;20091;-81
2023/07/07 13:01:19;;;;;;;6.35;4.15;;;;;;;;;;5051002;28;20513;-80
2023/07/07 13:04:03;;;;;;;7.00;3.90;;;;;;;;;;5053239;28;20041;-80
2023/07/07 13:06:31;;;;;;;4.40;4.00;;;;;;;;;;5047457;28;20128;-80
2023/07/07 13:09:21;;;;;;;9.68;4.43;;;;;;;;;;5051782;28;20025;-79
2023/07/07 13:11:57;;;;;;;6.68;3.78;;;;;;;;;;5043147;28;20104;-78
2023/07/07 13:14:26;;;;;;;6.45;4.28;;;;;;;;;;5063331;28;20040;-79
2023/07/07 13:16:51;;;;;;;5.53;4.18;;;;;;;;;;5053216;28;20045;-79
2023/07/07 13:19:18;;;;;;;10.70;4.43;;;;;;;;;;5049080;28;20037;-79
2023/07/07 13:21:44;;;;;;;5.45;4.35;;;;;;;;;;5050099;28;20033;-79
2023/07/07 13:24:13;;;;;;;6.68;4.18;;;;;;;;;;5044252;28;20033;-79
2023/07/07 13:26:38;;;;;;;5.53;3.72;;;;;;;;;;5054426;28;20079;-79
2023/07/07 13:29:05;;;;;;;5.22;3.25;;;;;;;;;;5050265;28;20037;-79
2023/07/07 13:31:35;;;;;;;7.32;3.33;;;;;;;;;;5045536;28;20121;-79
2023/07/07 13:34:00;;;;;;;8.90;3.67;;;;;;;;;;5048732;28;20061;-79
2023/07/07 13:36:25;;;;;;;7.28;3.70;;;;;;;;;;5051563;28;20040;-79
2023/07/07 13:38:53;;;;;;;6.57;3.63;;;;;;;;;;5051779;28;20041;-79
2023/07/07 13:41:19;;;;;;;7.68;3.50;;;;;;;;;;5046682;28;20105;-79
2023/07/07 13:43:47;;;;;;;10.25;4.30;;;;;;;;;;5051590;28;20040;-79
2023/07/07 13:46:21;;;;;;;10.02;4.40;;;;;;;;;;5050016;28;20116;-79
2023/07/07 13:48:57;;;;;;;9.30;3.90;;;;;;;;;;5048672;28;20037;-79
2023/07/07 13:51:38;;;;;;;4.47;3.45;;;;;;;;;;5055928;28;20053;-79
2023/07/07 13:54:07;;;;;;;7.13;3.40;;;;;;;;;;5047492;28;20033;-79
2023/07/07 13:56:45;;;;;;;7.78;3.85;;;;;;;;;;5042612;28;20027;-80
2023/07/07 13:59:23;;;;;;;8.55;4.30;;;;;;;;;;5044494;28;20033;-80
2023/07/07 14:01:50;;;;;;;4.93;3.90;;;;;;;;;;5060700;28;20060;-80
2023/07/07 14:04:22;;;;;;;5.03;3.50;;;;;;;;;;5043710;28;20030;-80
2023/07/07 14:06:48;;;;;;;8.15;3.75;;;;;;;;;;5050570;28;20048;-81
2023/07/07 14:09:44;;;;;;;7.70;4.00;;;;;;;;;;5051731;28;20032;-79
2023/07/07 14:12:16;;;;;;;6.95;3.90;;;;;;;;;;5039439;28;20033;-81
2023/07/07 14:14:42;;;;;;;9.50;4.00;;;;;;;;;;5053995;28;20020;-79
2023/07/07 14:17:17;;;;;;;9.88;3.75;;;;;;;;;;5047198;28;20041;-78
2023/07/07 14:20:02;;;;;;;9.25;3.75;;;;;;;;;;5043611;28;20040;-79
2023/07/07 14:22:31;;;;;;;7.03;3.70;;;;;;;;;;5050096;28;20032;-79
2023/07/07 14:24:57;;;;;;;6.38;3.60;;;;;;;;;;5043986;28;20041;-79
2023/07/07 14:27:23;;;;;;;4.70;3.58;;;;;;;;;;5048881;28;20475;-79
2023/07/07 14:29:50;;;;;;;9.85;3.80;;;;;;;;;;5050516;28;20067;-79
2023/07/07 14:32:39;;;;;;;7.00;4.45;;;;;;;;;;5047622;28;20037;-79
2023/07/07 14:35:19;;;;;;;8.80;3.38;;;;;;;;;;5051387;28;20403;-79
2023/07/07 14:37:53;;;;;;;5.03;3.47;;;;;;;;;;5051038;28;20029;-78
2023/07/07 14:40:32;;;;;;;8.63;3.55;;;;;;;;;;5045034;28;20084;-79
2023/07/07 14:42:59;;;;;;;6.50;3.47;;;;;;;;;;5043638;28;20064;-79
2023/07/07 14:45:30;;;;;;;13.05;3.70;;;;;;;;;;5042787;28;20037;-79
2023/07/07 14:47:57;;;;;;;7.53;3.92;;;;;;;;;;5050549;28;20040;-79
2023/07/07 14:50:23;;;;;;;8.10;3.72;;;;;;;;;;5047396;28;20037;-78
2023/07/07 14:52:53;;;;;;;7.03;3.67;;;;;;;;;;5054238;28;20033;-79
2023/07/07 14:55:21;;;;;;;8.35;4.10;;;;;;;;;;5049101;28;20033;-79
2023/07/07 14:57:49;;;;;;;6.57;3.40;;;;;;;;;;5041284;28;20539;-78
2023/07/07 15:00:38;;;;;;;4.85;3.38;;;;;;;;;;5042251;28;20036;-78